Time;durP1;ratioP1;P1;durP2;ratioP2;P2;SDS_P1;SDS_P2;PMS_P1;PMS_P2;Temp;Humidity;BMP_temperature;BMP_pressure;BME280_temperature;BME280_humidity;BME280_pressure;Samples;Min_cycle;Max_cycle;Signal;HPM_P1;HPM_P2
2021/10/25 00:00:21;;;;;;;11.73;6.67;;;8.30;91.40;;;;;;5053263;28;20025;-75
2021/10/25 00:02:47;;;;;;;13.33;7.27;;;8.30;91.30;;;;;;5052319;28;20033;-75
2021/10/25 00:05:12;;;;;;;13.00;7.07;;;8.30;91.40;;;;;;5052465;28;20044;-75
2021/10/25 00:07:38;;;;;;;13.53;7.40;;;8.20;91.50;;;;;;5052466;28;20029;-76
2021/10/25 00:10:06;;;;;;;11.97;6.97;;;8.30;91.50;;;;;;5052244;28;20534;-75
2021/10/25 00:12:32;;;;;;;12.43;7.80;;;8.20;91.50;;;;;;5053433;28;20112;-76
2021/10/25 00:14:58;;;;;;;13.20;8.00;;;8.20;91.60;;;;;;5052948;28;20087;-75
2021/10/25 00:17:24;;;;;;;13.67;7.90;;;8.20;91.70;;;;;;5052627;28;20099;-76
2021/10/25 00:19:50;;;;;;;13.37;8.27;;;8.10;91.80;;;;;;5053442;28;20469;-76
2021/10/25 00:22:16;;;;;;;17.63;7.53;;;8.10;91.80;;;;;;5035247;28;20025;-76
2021/10/25 00:24:42;;;;;;;13.40;7.33;;;8.10;91.80;;;;;;5051702;28;20052;-76
2021/10/25 00:27:08;;;;;;;12.17;6.93;;;8.10;91.80;;;;;;5035534;28;20381;-77
2021/10/25 00:29:33;;;;;;;11.93;7.47;;;8.10;91.80;;;;;;5053162;28;20025;-76
2021/10/25 00:31:59;;;;;;;12.53;7.40;;;8.10;91.80;;;;;;5052285;28;20026;-77
2021/10/25 00:34:25;;;;;;;13.03;7.13;;;8.00;91.80;;;;;;5035189;28;20025;-77
2021/10/25 00:36:50;;;;;;;15.77;7.27;;;8.00;91.90;;;;;;5053064;28;20033;-77
2021/10/25 00:39:16;;;;;;;10.77;6.97;;;8.00;91.90;;;;;;5051874;28;20496;-77
2021/10/25 00:41:42;;;;;;;13.73;7.30;;;8.00;91.90;;;;;;5051847;28;20123;-77
2021/10/25 00:44:07;;;;;;;13.83;7.53;;;8.00;92.00;;;;;;5053276;28;20053;-77
2021/10/25 00:46:33;;;;;;;16.73;7.53;;;7.90;92.00;;;;;;5038829;28;20547;-77
2021/10/25 00:49:01;;;;;;;14.03;7.47;;;8.00;92.00;;;;;;5055830;28;20025;-76
2021/10/25 00:51:27;;;;;;;12.13;6.93;;;7.90;92.10;;;;;;5055377;28;20040;-76
2021/10/25 00:53:53;;;;;;;11.70;6.97;;;7.90;92.20;;;;;;5056548;28;20017;-76
2021/10/25 00:56:19;;;;;;;17.20;8.30;;;7.90;92.20;;;;;;5055340;28;20380;-76
2021/10/25 00:58:44;;;;;;;12.30;7.43;;;7.90;92.40;;;;;;5038644;28;20025;-77
2021/10/25 01:01:10;;;;;;;15.70;7.63;;;7.80;92.30;;;;;;5055260;28;20477;-76
2021/10/25 01:03:36;;;;;;;10.33;6.90;;;7.80;92.40;;;;;;5056445;28;20029;-76
2021/10/25 01:06:03;;;;;;;13.40;7.10;;;7.90;92.40;;;;;;5056312;28;20029;-76
2021/10/25 01:08:34;;;;;;;14.00;7.30;;;7.90;92.50;;;;;;5055103;28;20081;-76
2021/10/25 01:11:01;;;;;;;13.63;7.43;;;7.80;92.50;;;;;;5056448;28;20085;-77
2021/10/25 01:13:27;;;;;;;13.77;6.60;;;7.80;92.50;;;;;;5055136;28;20434;-77
2021/10/25 01:15:53;;;;;;;11.23;7.27;;;7.70;92.60;;;;;;5038308;28;20359;-77
2021/10/25 01:18:19;;;;;;;11.40;6.73;;;7.80;92.60;;;;;;5056341;28;20044;-76
2021/10/25 01:20:45;;;;;;;14.80;7.90;;;7.70;92.70;;;;;;5056381;28;20033;-76
2021/10/25 01:23:10;;;;;;;15.33;8.03;;;7.70;92.80;;;;;;5054958;28;20036;-76
2021/10/25 01:25:36;;;;;;;12.57;7.70;;;7.70;92.90;;;;;;5055221;28;20033;-76
2021/10/25 01:28:03;;;;;;;12.27;7.70;;;7.70;93.10;;;;;;5054925;28;20025;-75
2021/10/25 01:30:28;;;;;;;14.20;7.03;;;7.70;93.20;;;;;;5056122;28;20029;-76
2021/10/25 01:32:54;;;;;;;11.90;7.43;;;7.60;93.20;;;;;;5054919;28;20031;-76
2021/10/25 01:35:20;;;;;;;13.97;7.30;;;7.70;93.20;;;;;;5054964;28;20112;-76
2021/10/25 01:37:46;;;;;;;14.17;7.77;;;7.70;93.30;;;;;;5054953;28;20072;-77
2021/10/25 01:40:12;;;;;;;14.07;8.17;;;7.70;93.20;;;;;;5038131;28;20461;-77
2021/10/25 01:42:39;;;;;;;12.93;7.63;;;7.70;93.30;;;;;;5054547;28;20029;-77
2021/10/25 01:45:06;;;;;;;13.37;6.97;;;7.70;93.20;;;;;;5055848;28;20033;-76
2021/10/25 01:47:32;;;;;;;11.73;7.00;;;7.70;93.30;;;;;;5056017;28;20029;-75
2021/10/25 01:49:58;;;;;;;16.93;7.63;;;7.70;93.30;;;;;;5054597;28;20120;-76
2021/10/25 01:52:24;;;;;;;12.13;6.57;;;7.70;93.50;;;;;;5054702;28;20040;-76
2021/10/25 01:54:50;;;;;;;11.93;7.07;;;7.70;93.50;;;;;;5053796;28;20512;-75
2021/10/25 01:57:15;;;;;;;12.07;7.13;;;7.70;93.50;;;;;;5054064;28;20064;-75
2021/10/25 01:59:42;;;;;;;11.50;6.47;;;7.70;93.60;;;;;;5055540;28;20064;-76
2021/10/25 02:02:08;;;;;;;13.40;6.87;;;7.90;93.70;;;;;;5055545;28;20108;-76
2021/10/25 02:04:34;;;;;;;12.47;6.37;;;7.80;93.70;;;;;;5054119;28;20450;-76
2021/10/25 02:07:00;;;;;;;12.93;7.47;;;7.90;93.80;;;;;;5055399;28;20025;-76
2021/10/25 02:09:26;;;;;;;12.83;7.63;;;7.90;93.80;;;;;;5055535;28;20079;-76
2021/10/25 02:11:51;;;;;;;14.13;6.97;;;8.00;93.80;;;;;;5037317;28;20032;-76
2021/10/25 02:14:17;;;;;;;14.50;7.80;;;8.00;93.90;;;;;;5037346;28;20041;-76
2021/10/25 02:16:43;;;;;;;11.30;6.33;;;8.10;94.10;;;;;;5037647;28;20480;-76
2021/10/25 02:19:09;;;;;;;11.83;6.73;;;8.10;93.80;;;;;;5053871;28;20040;-75
2021/10/25 02:21:35;;;;;;;12.17;6.67;;;8.10;93.80;;;;;;5055652;28;20029;-76
2021/10/25 02:24:01;;;;;;;11.67;6.60;;;8.20;93.80;;;;;;5054997;28;20090;-76
2021/10/25 02:26:27;;;;;;;13.70;6.33;;;8.20;93.90;;;;;;5037459;28;20111;-75
2021/10/25 02:28:53;;;;;;;14.27;6.10;;;8.40;93.80;;;;;;5055116;28;20465;-76
2021/10/25 02:31:19;;;;;;;11.83;6.30;;;8.40;93.80;;;;;;5037083;28;20036;-76
2021/10/25 02:33:44;;;;;;;12.17;6.03;;;8.30;93.80;;;;;;5054929;28;20029;-75
2021/10/25 02:36:10;;;;;;;10.50;6.27;;;8.40;94.10;;;;;;5054257;28;20044;-75
2021/10/25 02:38:37;;;;;;;12.17;6.27;;;8.40;93.80;;;;;;5053791;28;20017;-76
2021/10/25 02:41:05;;;;;;;8.93;5.47;;;8.40;93.70;;;;;;5054915;28;20456;-76
2021/10/25 02:43:30;;;;;;;10.53;6.03;;;8.50;93.70;;;;;;5036930;28;20427;-76
2021/10/25 02:45:57;;;;;;;9.87;5.67;;;8.50;93.80;;;;;;5053706;28;20033;-76
2021/10/25 02:48:23;;;;;;;10.03;5.20;;;8.60;93.70;;;;;;5053360;28;20485;-76
2021/10/25 02:50:49;;;;;;;9.60;5.70;;;8.60;93.70;;;;;;5053582;28;20484;-76
2021/10/25 02:53:15;;;;;;;10.13;5.97;;;8.60;93.70;;;;;;5054670;28;20029;-76
2021/10/25 02:55:41;;;;;;;8.80;5.47;;;8.70;93.70;;;;;;5054705;28;20036;-76
2021/10/25 02:58:06;;;;;;;9.53;4.90;;;8.70;93.70;;;;;;5053519;28;20060;-76
2021/10/25 03:00:32;;;;;;;9.17;5.53;;;8.70;93.60;;;;;;5053116;28;20375;-76
2021/10/25 03:02:58;;;;;;;7.83;5.40;;;8.80;93.60;;;;;;5054557;28;20191;-76
2021/10/25 03:05:23;;;;;;;11.33;6.17;;;8.80;93.60;;;;;;5053293;28;20037;-76
2021/10/25 03:07:49;;;;;;;9.63;5.47;;;8.90;93.60;;;;;;5035899;28;20039;-76
2021/10/25 03:10:16;;;;;;;12.37;5.73;;;8.90;93.60;;;;;;5053331;28;20025;-76
2021/10/25 03:12:42;;;;;;;10.73;5.33;;;8.80;93.60;;;;;;5036408;28;20469;-76
2021/10/25 03:15:08;;;;;;;11.57;6.03;;;8.90;93.60;;;;;;5054061;28;20048;-76
2021/10/25 03:17:35;;;;;;;10.80;4.70;;;9.00;93.60;;;;;;5036276;28;20029;-76
2021/10/25 03:20:02;;;;;;;8.43;5.07;;;9.00;93.50;;;;;;5052864;28;20087;-75
2021/10/25 03:22:29;;;;;;;9.20;4.60;;;9.00;93.50;;;;;;5052827;28;20025;-76
2021/10/25 03:24:55;;;;;;;8.73;5.00;;;9.10;93.50;;;;;;5036052;28;20033;-75
2021/10/25 03:27:21;;;;;;;12.90;6.33;;;9.10;93.50;;;;;;5053797;28;20032;-76
2021/10/25 03:29:47;;;;;;;11.03;5.77;;;9.10;93.40;;;;;;5052564;28;20028;-76
2021/10/25 03:32:13;;;;;;;10.40;5.50;;;9.10;93.30;;;;;;5052591;28;20025;-76
2021/10/25 03:34:39;;;;;;;9.87;6.17;;;9.20;93.30;;;;;;5052585;28;20041;-76
2021/10/25 03:37:06;;;;;;;7.77;5.03;;;9.20;93.30;;;;;;5035916;28;20028;-76
2021/10/25 03:39:32;;;;;;;10.87;5.27;;;9.10;93.20;;;;;;5067789;28;20048;-76
2021/10/25 03:41:59;;;;;;;10.50;5.23;;;9.10;93.20;;;;;;5073393;28;20024;-76
2021/10/25 03:44:28;;;;;;;13.30;5.53;;;9.20;93.20;;;;;;5071697;28;20064;-76
2021/10/25 03:47:01;;;;;;;8.77;4.40;;;9.30;93.20;;;;;;5072158;28;20060;-75
2021/10/25 03:52:03;;;;;;;9.23;5.07;;;9.30;93.10;;;;;;5072285;28;20476;-75
2021/10/25 03:54:39;;;;;;;9.90;5.20;;;9.30;93.10;;;;;;5073262;28;20082;-75
2021/10/25 04:29:15;;;;;;;10.17;5.40;;;9.40;92.80;;;;;;5079572;28;20029;-77
2021/10/25 04:31:40;;;;;;;9.37;4.70;;;9.50;92.80;;;;;;5059637;28;20021;-77
2021/10/25 04:34:06;;;;;;;11.80;5.27;;;9.50;92.80;;;;;;5076913;28;20082;-77
2021/10/25 04:36:32;;;;;;;9.77;5.23;;;9.60;92.80;;;;;;5075751;28;20078;-77
2021/10/25 04:38:57;;;;;;;8.43;4.13;;;9.60;92.90;;;;;;5075777;28;20070;-77
2021/10/25 04:41:23;;;;;;;8.13;4.27;;;9.60;92.90;;;;;;5059233;28;20039;-77
2021/10/25 04:43:48;;;;;;;8.57;4.93;;;9.60;92.80;;;;;;5058807;28;20024;-75
2021/10/25 04:46:14;;;;;;;8.83;5.50;;;9.60;92.80;;;;;;5058818;28;20028;-75
2021/10/25 04:48:41;;;;;;;9.20;4.90;;;9.60;92.80;;;;;;5058832;28;20028;-77
2021/10/25 04:51:08;;;;;;;9.70;4.80;;;9.70;92.90;;;;;;5075451;28;20028;-77
2021/10/25 04:53:34;;;;;;;10.20;4.53;;;9.70;92.90;;;;;;5076721;28;20044;-76
2021/10/25 04:55:59;;;;;;;9.43;4.50;;;9.80;93.20;;;;;;5058805;28;20374;-77
2021/10/25 04:58:25;;;;;;;8.97;4.33;;;9.60;92.90;;;;;;5039920;28;20465;-77
2021/10/25 05:00:51;;;;;;;7.93;4.27;;;9.70;92.90;;;;;;5041934;28;20395;-75
2021/10/25 05:03:17;;;;;;;10.30;4.87;;;9.70;93.00;;;;;;5055025;28;20123;-76
2021/10/25 05:05:43;;;;;;;12.33;4.80;;;9.70;93.00;;;;;;5073252;28;20039;-76
2021/10/25 05:08:08;;;;;;;9.80;4.73;;;9.80;93.00;;;;;;5055889;28;20123;-77
2021/10/25 05:10:34;;;;;;;7.70;4.33;;;9.80;93.00;;;;;;5065703;28;20025;-76
2021/10/25 05:13:00;;;;;;;8.60;5.23;;;9.80;93.00;;;;;;5054110;28;20442;-76
2021/10/25 05:15:26;;;;;;;8.00;4.40;;;9.80;93.00;;;;;;5037159;28;20057;-77
2021/10/25 05:17:51;;;;;;;9.60;4.57;;;9.80;93.00;;;;;;5062100;28;20025;-76
2021/10/25 05:20:17;;;;;;;13.40;4.97;;;9.90;93.00;;;;;;5049519;28;20523;-76
2021/10/25 05:22:42;;;;;;;12.60;5.27;;;9.90;93.00;;;;;;5066149;28;20029;-76
2021/10/25 05:25:08;;;;;;;8.97;4.57;;;9.80;93.00;;;;;;5062978;28;20048;-75
2021/10/25 05:27:35;;;;;;;8.77;4.13;;;9.90;93.00;;;;;;5062523;28;20091;-76
2021/10/25 05:30:01;;;;;;;8.03;4.03;;;9.80;92.90;;;;;;5066021;28;20059;-75
2021/10/25 05:32:27;;;;;;;8.37;4.40;;;10.00;93.00;;;;;;5074857;28;20116;-75
2021/10/25 05:34:53;;;;;;;11.07;4.13;;;9.90;93.10;;;;;;5074736;28;20560;-75
2021/10/25 05:37:18;;;;;;;7.87;3.93;;;9.90;93.00;;;;;;5057912;28;20480;-78
2021/10/25 05:39:44;;;;;;;9.57;4.63;;;10.00;93.00;;;;;;5074406;28;20047;-76
2021/10/25 05:42:10;;;;;;;10.60;4.53;;;10.00;93.00;;;;;;5057777;28;20135;-76
2021/10/25 05:44:36;;;;;;;10.17;4.30;;;10.10;93.00;;;;;;5075854;28;20075;-76
2021/10/25 05:47:02;;;;;;;8.17;3.87;;;10.00;93.00;;;;;;5074368;28;20044;-76
2021/10/25 05:49:29;;;;;;;8.50;4.63;;;10.00;93.00;;;;;;5074321;28;20029;-75
2021/10/25 05:51:54;;;;;;;10.80;4.80;;;10.10;93.10;;;;;;5057729;28;20032;-77
2021/10/25 05:54:21;;;;;;;7.23;3.80;;;10.10;93.10;;;;;;5074194;28;20029;-77
2021/10/25 05:56:47;;;;;;;9.10;4.93;;;10.00;93.10;;;;;;5057581;28;20369;-77
2021/10/25 05:59:14;;;;;;;9.03;4.20;;;10.10;93.10;;;;;;5057680;28;20032;-77
2021/10/25 06:01:56;;;;;;;7.40;3.63;;;10.10;93.10;;;;;;5057587;28;20438;-77
2021/10/25 06:04:24;;;;;;;9.77;4.20;;;10.20;93.20;;;;;;5074215;28;20029;-76
2021/10/25 06:06:49;;;;;;;11.97;4.23;;;10.10;93.20;;;;;;5074024;28;20025;-78
2021/10/25 06:09:15;;;;;;;8.77;4.60;;;10.20;93.20;;;;;;5040624;28;20031;-77
2021/10/25 06:11:41;;;;;;;8.20;4.23;;;10.10;93.20;;;;;;5040594;28;20024;-77
2021/10/25 06:14:09;;;;;;;9.67;4.10;;;10.10;93.20;;;;;;5073659;28;20029;-77
2021/10/25 06:16:46;;;;;;;8.53;4.03;;;10.10;93.50;;;;;;5075044;28;20081;-78
2021/10/25 06:19:13;;;;;;;10.17;4.47;;;10.20;93.20;;;;;;5073601;28;20028;-76
2021/10/25 06:21:39;;;;;;;9.93;3.63;;;10.20;93.20;;;;;;5071742;28;20028;-77
2021/10/25 06:24:05;;;;;;;8.03;4.07;;;10.20;93.10;;;;;;5053391;28;20044;-77
2021/10/25 06:26:30;;;;;;;8.63;4.03;;;10.20;93.10;;;;;;5053489;28;20473;-79
2021/10/25 06:28:56;;;;;;;7.07;3.53;;;10.30;93.10;;;;;;5053604;28;20108;-77
2021/10/25 06:31:24;;;;;;;10.27;4.10;;;10.30;93.00;;;;;;5036848;28;20481;-76
2021/10/25 06:33:50;;;;;;;9.73;4.43;;;10.40;93.00;;;;;;5054512;28;20045;-77
2021/10/25 06:36:19;;;;;;;7.40;3.90;;;10.30;92.90;;;;;;5037148;28;20202;-77
2021/10/25 06:41:18;;;;;;;7.77;4.10;;;10.40;92.90;;;;;;5052824;28;20037;-76
2021/10/25 06:43:44;;;;;;;7.87;3.90;;;10.40;92.90;;;;;;5053219;28;20116;-75
2021/10/25 06:46:11;;;;;;;5.10;3.07;;;10.50;92.90;;;;;;5054392;28;20469;-75
2021/10/25 06:48:36;;;;;;;10.13;4.13;;;10.40;92.80;;;;;;5054369;28;20452;-76
2021/10/25 06:51:02;;;;;;;10.00;3.60;;;10.50;92.80;;;;;;5053069;28;20036;-76
2021/10/25 06:53:28;;;;;;;9.07;4.33;;;10.40;92.80;;;;;;5066384;28;20024;-76
2021/10/25 06:55:54;;;;;;;6.93;3.83;;;10.40;92.80;;;;;;5072894;28;20025;-76
2021/10/25 06:58:21;;;;;;;7.27;3.83;;;10.50;92.80;;;;;;5074097;28;20032;-76
2021/10/25 07:00:50;;;;;;;11.17;4.17;;;10.50;92.70;;;;;;5066807;28;20033;-77
2021/10/25 07:03:16;;;;;;;11.40;4.37;;;10.50;92.70;;;;;;5053896;28;20025;-76
2021/10/25 07:05:41;;;;;;;5.50;3.53;;;10.50;92.70;;;;;;5061409;28;20545;-77
2021/10/25 07:08:08;;;;;;;9.43;4.13;;;10.50;92.70;;;;;;5049835;28;20024;-77
2021/10/25 07:10:35;;;;;;;9.23;3.77;;;10.60;92.70;;;;;;5054420;28;20108;-75
2021/10/25 07:13:01;;;;;;;9.17;3.67;;;10.60;92.70;;;;;;5062031;28;20021;-76
2021/10/25 07:15:28;;;;;;;6.90;3.20;;;10.70;92.70;;;;;;5064864;28;20089;-77
2021/10/25 08:11:51;;;;;;;7.17;3.97;;;11.10;92.50;;;;;;5052810;28;20490;-77
2021/10/25 08:14:17;;;;;;;7.63;3.93;;;11.10;92.50;;;;;;5043494;28;20029;-78
2021/10/25 08:16:49;;;;;;;8.57;3.87;;;11.10;92.40;;;;;;5049983;28;20025;-77
2021/10/25 08:19:26;;;;;;;10.40;4.93;;;11.10;92.40;;;;;;5051768;28;20025;-79
2021/10/25 08:21:58;;;;;;;9.00;4.70;;;11.20;92.30;;;;;;5052979;28;20029;-79
2021/10/25 08:24:26;;;;;;;11.00;4.78;;;11.20;92.10;;;;;;5052726;28;20021;-79
2021/10/25 08:26:52;;;;;;;9.98;4.72;;;11.20;92.00;;;;;;5051598;28;20108;-79
2021/10/25 08:29:19;;;;;;;8.90;4.00;;;11.30;92.00;;;;;;5050665;28;20239;-79
2021/10/25 08:31:49;;;;;;;7.10;3.73;;;11.30;92.00;;;;;;5051100;28;20124;-79
2021/10/25 08:39:47;;;;;;;7.83;3.50;;;11.40;91.90;;;;;;5052337;28;20067;-79
2021/10/25 08:42:19;;;;;;;7.87;3.57;;;11.40;91.90;;;;;;5037067;28;20021;-80
2021/10/25 08:44:46;;;;;;;8.33;3.87;;;11.40;91.80;;;;;;5055144;28;20392;-80
2021/10/25 08:47:17;;;;;;;9.57;3.80;;;11.40;91.70;;;;;;5071404;28;20132;-80
2021/10/25 08:49:42;;;;;;;8.60;3.90;;;11.40;91.70;;;;;;5071583;28;20012;-78
2021/10/25 08:52:09;;;;;;;9.10;4.40;;;11.40;91.60;;;;;;5071718;28;20496;-79
2021/10/25 08:54:35;;;;;;;9.03;4.23;;;11.50;91.50;;;;;;5072583;28;20024;-79
2021/10/25 08:57:33;;;;;;;7.47;3.87;;;11.50;91.50;;;;;;5068129;28;20032;-79
2021/10/25 09:00:08;;;;;;;7.82;3.92;;;11.50;91.50;;;;;;5067440;28;20027;-77
2021/10/25 09:02:35;;;;;;;7.93;3.97;;;11.50;91.50;;;;;;5072674;28;20028;-78
2021/10/25 09:05:07;;;;;;;7.77;3.67;;;11.50;91.50;;;;;;5072812;28;20103;-78
2021/10/25 09:07:54;;;;;;;9.10;4.20;;;11.50;91.40;;;;;;5075143;28;20021;-78
2021/10/25 09:10:23;;;;;;;7.60;3.70;;;11.60;91.70;;;;;;5074730;28;20025;-78
2021/10/25 09:13:05;;;;;;;10.23;3.63;;;11.60;91.40;;;;;;5076109;28;20075;-79
2021/10/25 09:15:33;;;;;;;7.40;3.95;;;11.60;91.70;;;;;;5076002;28;20094;-79
2021/10/25 09:18:06;;;;;;;11.00;4.00;;;11.70;91.40;;;;;;5073595;28;20476;-78
2021/10/25 09:20:40;;;;;;;10.50;3.70;;;11.70;91.40;;;;;;5071498;28;20082;-78
2021/10/25 09:23:08;;;;;;;8.98;3.75;;;11.70;91.40;;;;;;5063574;28;20021;-79
2021/10/25 09:25:36;;;;;;;8.98;4.28;;;11.80;91.40;;;;;;5065330;28;20033;-77
2021/10/25 09:28:07;;;;;;;8.90;4.28;;;11.80;91.30;;;;;;5055195;28;20021;-77
2021/10/25 09:30:39;;;;;;;9.40;4.88;;;11.80;91.20;;;;;;5056229;28;20032;-80
2021/10/25 09:33:06;;;;;;;10.88;4.00;;;11.90;91.30;;;;;;5054485;28;20074;-79
2021/10/25 09:35:45;;;;;;;6.65;3.47;;;11.90;91.20;;;;;;5038143;28;20439;-79
2021/10/25 09:39:07;;;;;;;6.40;3.55;;;11.90;91.20;;;;;;5050919;28;20164;-79
2021/10/25 09:49:17;;;;;;;9.02;3.53;;;12.00;91.20;;;;;;5075287;28;20032;-79
2021/10/25 09:51:57;;;;;;;10.40;4.72;;;12.00;91.20;;;;;;5070436;28;20392;-79
2021/10/25 09:54:24;;;;;;;10.30;4.95;;;12.10;91.20;;;;;;5053666;28;20037;-77
2021/10/25 10:02:10;;;;;;;10.85;4.22;;;12.20;91.10;;;;;;5073945;28;20485;-78
2021/10/25 10:04:38;;;;;;;10.05;4.43;;;12.20;91.00;;;;;;5050070;28;20107;-79
2021/10/25 10:07:04;;;;;;;8.90;4.63;;;12.20;90.90;;;;;;5048415;28;20036;-79
2021/10/25 10:09:31;;;;;;;11.30;4.13;;;12.20;90.90;;;;;;5056713;28;20469;-79
2021/10/25 10:11:57;;;;;;;8.93;4.90;;;12.10;90.90;;;;;;5066139;28;20024;-79
2021/10/25 10:14:24;;;;;;;8.02;4.15;;;12.10;90.90;;;;;;5058973;28;20033;-78
2021/10/25 10:16:50;;;;;;;10.25;4.05;;;12.10;90.90;;;;;;5070737;28;20028;-79
2021/10/25 10:19:23;;;;;;;8.82;4.05;;;12.20;91.00;;;;;;5056777;28;20036;-78
2021/10/25 10:21:52;;;;;;;9.17;4.27;;;12.10;91.00;;;;;;5074661;28;20495;-77
2021/10/25 10:24:21;;;;;;;8.40;3.65;;;12.20;91.00;;;;;;5070043;28;20400;-79
2021/10/25 10:26:58;;;;;;;7.47;3.50;;;12.20;91.00;;;;;;5064071;28;20029;-79
2021/10/25 10:29:25;;;;;;;7.85;3.55;;;12.20;91.00;;;;;;5053442;28;20017;-78
2021/10/25 10:31:59;;;;;;;9.68;3.85;;;12.20;91.00;;;;;;5073170;28;20032;-78
2021/10/25 10:34:24;;;;;;;9.90;3.65;;;12.20;91.00;;;;;;5075133;28;20074;-78
2021/10/25 10:36:55;;;;;;;7.90;3.60;;;12.30;91.00;;;;;;5073489;28;20029;-79
2021/10/25 10:39:26;;;;;;;6.25;3.20;;;12.30;91.00;;;;;;5074757;28;20036;-79
2021/10/25 10:41:52;;;;;;;9.23;3.50;;;12.30;91.10;;;;;;5074721;28;20059;-77
2021/10/25 10:44:20;;;;;;;14.63;4.28;;;12.40;91.10;;;;;;5073190;28;20060;-78
2021/10/25 10:47:02;;;;;;;7.53;3.28;;;12.40;91.10;;;;;;5074057;28;20035;-78
2021/10/25 10:49:35;;;;;;;6.82;3.50;;;12.50;91.10;;;;;;5073394;28;20747;-78
2021/10/25 10:52:31;;;;;;;8.00;3.58;;;12.50;91.00;;;;;;5074520;28;20025;-77
2021/10/25 10:55:16;;;;;;;7.30;3.33;;;12.60;91.00;;;;;;5073186;28;20021;-77
2021/10/25 11:00:09;;;;;;;7.93;4.07;;;12.60;90.90;;;;;;5054432;28;20167;-78
2021/10/25 11:02:36;;;;;;;7.72;3.70;;;12.60;90.90;;;;;;5053193;28;20036;-79
2021/10/25 11:05:09;;;;;;;7.72;3.78;;;12.70;90.90;;;;;;5054230;28;20106;-77
2021/10/25 11:07:39;;;;;;;6.20;2.92;;;12.70;90.80;;;;;;5052916;28;20143;-78
2021/10/25 11:10:07;;;;;;;6.45;3.10;;;12.70;90.80;;;;;;5058152;28;20020;-78
2021/10/25 11:12:35;;;;;;;8.00;3.50;;;12.70;90.80;;;;;;5053864;28;20021;-78
2021/10/25 11:15:04;;;;;;;7.88;3.53;;;12.80;91.10;;;;;;5056449;28;20044;-78
2021/10/25 11:17:31;;;;;;;9.35;3.63;;;12.80;90.80;;;;;;5054214;28;20040;-78
2021/10/25 11:19:57;;;;;;;6.25;3.75;;;12.90;90.90;;;;;;5069754;28;20373;-80
2021/10/25 11:22:29;;;;;;;10.63;4.13;;;12.90;90.90;;;;;;5055908;28;20050;-79
2021/10/25 11:24:55;;;;;;;7.68;3.85;;;12.90;90.90;;;;;;5072270;28;20111;-82
2021/10/25 11:27:31;;;;;;;6.93;3.30;;;13.00;90.90;;;;;;5072241;28;20020;-80
2021/10/25 11:30:10;;;;;;;7.43;3.60;;;13.00;90.80;;;;;;5073716;28;20029;-80
2021/10/25 11:32:37;;;;;;;7.50;3.92;;;13.00;90.80;;;;;;5058176;28;20017;-78
2021/10/25 11:35:10;;;;;;;8.65;4.20;;;13.10;90.90;;;;;;5073737;28;20024;-80
2021/10/25 11:37:37;;;;;;;17.13;4.70;;;13.20;90.80;;;;;;5069492;28;20024;-78
2021/10/25 11:40:10;;;;;;;7.05;3.28;;;13.30;90.70;;;;;;5035896;28;20036;-81
2021/10/25 11:42:42;;;;;;;7.33;3.90;;;13.40;90.50;;;;;;5053583;28;20029;-78
2021/10/25 11:45:17;;;;;;;8.68;3.22;;;13.50;90.50;;;;;;5035926;28;20029;-75
2021/10/25 11:47:45;;;;;;;6.53;3.17;;;13.60;90.60;;;;;;5052455;28;20120;-77
2021/10/25 11:50:17;;;;;;;9.77;3.80;;;13.70;90.60;;;;;;5052200;28;20014;-76
2021/10/25 11:52:49;;;;;;;7.07;2.88;;;13.80;90.40;;;;;;5052231;28;20028;-78
2021/10/25 11:55:20;;;;;;;7.18;3.53;;;13.90;90.10;;;;;;5052260;28;20124;-77
2021/10/25 11:57:50;;;;;;;9.18;3.90;;;13.80;89.90;;;;;;5053431;28;20445;-77
2021/10/25 12:00:19;;;;;;;8.45;3.63;;;13.80;89.50;;;;;;5035541;28;20029;-76
2021/10/25 12:02:45;;;;;;;8.38;3.38;;;13.80;90.00;;;;;;5054486;28;20033;-78
2021/10/25 12:05:11;;;;;;;8.95;3.17;;;13.90;90.00;;;;;;5052401;28;20032;-77
2021/10/25 12:07:51;;;;;;;8.50;2.78;;;14.30;90.70;;;;;;5035471;28;20163;-78
2021/10/25 12:10:20;;;;;;;6.18;2.45;;;14.90;91.10;;;;;;5055662;28;20475;-77
2021/10/25 12:12:50;;;;;;;6.13;2.90;;;15.50;90.90;;;;;;5061761;28;20029;-79
2021/10/25 12:15:17;;;;;;;6.80;2.60;;;16.00;88.70;;;;;;5051791;28;20049;-77
2021/10/25 12:17:44;;;;;;;4.68;2.60;;;16.20;87.10;;;;;;5051914;28;20174;-77
2021/10/25 12:20:12;;;;;;;6.88;3.30;;;16.30;85.70;;;;;;5064565;28;20112;-79
2021/10/25 12:22:41;;;;;;;8.90;3.20;;;16.40;84.00;;;;;;5051884;28;20033;-76
2021/10/25 12:25:07;;;;;;;8.32;2.88;;;16.30;82.40;;;;;;5034720;28;20033;-80
2021/10/25 12:27:38;;;;;;;5.78;2.70;;;16.50;83.00;;;;;;5051734;28;20107;-75
2021/10/25 12:30:05;;;;;;;6.05;2.50;;;16.80;84.60;;;;;;5035223;28;20029;-77
2021/10/25 12:32:31;;;;;;;7.38;2.92;;;17.40;82.60;;;;;;5051471;28;20108;-78
2021/10/25 12:34:58;;;;;;;7.80;2.95;;;17.70;81.30;;;;;;5051614;28;20124;-78
2021/10/25 12:37:31;;;;;;;6.13;2.72;;;17.80;79.80;;;;;;5035086;28;20029;-77
2021/10/25 12:39:58;;;;;;;6.87;2.40;;;17.80;78.60;;;;;;5053648;28;20029;-77
2021/10/25 12:42:26;;;;;;;4.57;2.35;;;17.80;77.90;;;;;;5062340;28;20036;-76
2021/10/25 12:44:55;;;;;;;4.32;2.03;;;17.70;77.10;;;;;;5039007;28;20060;-78
2021/10/25 12:47:23;;;;;;;5.32;2.80;;;17.60;76.90;;;;;;5064264;28;20024;-78
2021/10/25 12:49:54;;;;;;;5.68;2.22;;;17.80;78.30;;;;;;5075452;28;20021;-78
2021/10/25 12:52:21;;;;;;;4.53;2.40;;;18.30;78.00;;;;;;5075472;28;20384;-77
2021/10/25 12:54:47;;;;;;;4.85;2.28;;;18.50;76.20;;;;;;5076679;28;20108;-78
2021/10/25 12:57:21;;;;;;;6.32;2.88;;;18.60;75.30;;;;;;5075131;28;20028;-77
2021/10/25 13:00:22;;;;;;;7.80;2.70;;;18.50;73.80;;;;;;5067235;28;20033;-79
2021/10/25 13:02:56;;;;;;;8.85;3.10;;;18.20;72.60;;;;;;5041799;28;20290;-78
2021/10/25 13:05:31;;;;;;;5.45;3.25;;;17.90;72.70;;;;;;5038465;28;20051;-74
2021/10/25 13:08:08;;;;;;;6.45;2.92;;;17.80;72.80;;;;;;5056119;28;20017;-77
2021/10/25 13:10:37;;;;;;;4.05;2.15;;;17.80;73.30;;;;;;5074660;28;20021;-77
2021/10/25 13:13:05;;;;;;;6.35;2.78;;;17.90;73.60;;;;;;5075525;28;20070;-76
2021/10/25 13:15:31;;;;;;;6.65;2.97;;;17.90;73.50;;;;;;5074762;28;20373;-76
2021/10/25 13:17:59;;;;;;;6.55;3.00;;;17.90;73.30;;;;;;5076114;28;20431;-75
2021/10/25 13:20:28;;;;;;;5.10;2.60;;;18.00;73.20;;;;;;5074813;28;20027;-75
2021/10/25 13:22:56;;;;;;;6.47;2.30;;;17.90;72.80;;;;;;5074624;28;20025;-75
2021/10/25 13:25:23;;;;;;;6.18;2.78;;;18.00;73.20;;;;;;5074491;28;20040;-75
2021/10/25 13:27:50;;;;;;;8.35;2.83;;;18.10;72.90;;;;;;5057918;28;20060;-79
2021/10/25 13:30:17;;;;;;;5.35;2.60;;;18.20;72.70;;;;;;5074527;28;20040;-74
2021/10/25 13:32:43;;;;;;;6.03;2.83;;;18.10;72.60;;;;;;5075738;28;20028;-75
2021/10/25 13:35:10;;;;;;;6.72;3.70;;;17.90;71.70;;;;;;5075671;28;20029;-76
2021/10/25 13:37:37;;;;;;;5.90;2.90;;;17.60;71.40;;;;;;5073320;28;20094;-76
2021/10/25 13:40:04;;;;;;;7.43;3.08;;;17.40;71.80;;;;;;5068242;28;20142;-76
2021/10/25 13:42:30;;;;;;;8.63;3.70;;;17.20;72.40;;;;;;5057941;28;20028;-75
2021/10/25 13:44:56;;;;;;;5.63;3.90;;;17.00;73.50;;;;;;5072523;28;20085;-74
2021/10/25 13:47:22;;;;;;;6.50;3.30;;;16.90;73.40;;;;;;5054443;28;20044;-75
2021/10/25 13:49:48;;;;;;;10.07;3.55;;;16.90;74.10;;;;;;5037656;28;20104;-75
2021/10/25 13:52:14;;;;;;;8.40;3.45;;;17.00;74.50;;;;;;5037315;28;20370;-76
2021/10/25 13:54:40;;;;;;;7.25;2.97;;;17.10;74.30;;;;;;5055100;28;20040;-76
2021/10/25 13:57:09;;;;;;;6.82;3.47;;;17.30;74.40;;;;;;5054966;28;20037;-76
2021/10/25 13:59:37;;;;;;;9.23;3.30;;;17.60;74.30;;;;;;5064754;28;20041;-76
2021/10/25 14:02:07;;;;;;;8.10;3.08;;;17.70;73.50;;;;;;5057519;28;20032;-78
2021/10/25 14:04:33;;;;;;;4.97;2.78;;;17.70;72.90;;;;;;5075262;28;20025;-79
2021/10/25 14:07:00;;;;;;;9.63;3.63;;;17.60;73.00;;;;;;5057502;28;20028;-78
2021/10/25 14:09:26;;;;;;;8.85;2.78;;;17.50;72.90;;;;;;5057186;28;20068;-80
2021/10/25 14:11:56;;;;;;;8.30;3.35;;;17.40;73.10;;;;;;5040762;28;20036;-80
2021/10/25 14:14:26;;;;;;;7.70;3.33;;;17.30;73.30;;;;;;5074927;28;20028;-79
2021/10/25 14:16:57;;;;;;;8.20;3.58;;;17.10;73.50;;;;;;5040667;28;20032;-81
2021/10/25 14:19:27;;;;;;;6.70;3.13;;;17.00;73.80;;;;;;5056869;28;20028;-80
2021/10/25 14:21:53;;;;;;;7.40;3.88;;;16.90;74.10;;;;;;5074069;28;20032;-79
2021/10/25 14:24:20;;;;;;;8.80;4.22;;;16.80;74.40;;;;;;5065476;28;20021;-80
2021/10/25 14:26:47;;;;;;;6.50;3.47;;;16.60;74.60;;;;;;5060415;28;20040;-80
2021/10/25 14:29:13;;;;;;;8.27;3.78;;;16.50;75.00;;;;;;5059445;28;20025;-79
2021/10/25 14:31:44;;;;;;;7.47;3.33;;;16.50;75.60;;;;;;5047190;28;20477;-78
2021/10/25 14:34:10;;;;;;;8.18;4.18;;;16.30;75.90;;;;;;5045022;28;20477;-76
2021/10/25 14:36:36;;;;;;;7.88;3.67;;;16.30;76.40;;;;;;5059919;28;20036;-78
2021/10/25 14:42:14;;;;;;;7.10;3.28;;;16.30;77.10;;;;;;5073495;28;20400;-80
2021/10/25 14:44:48;;;;;;;6.28;4.00;;;16.30;77.20;;;;;;5070374;28;20501;-80
2021/10/25 14:55:31;;;;;;;7.35;2.65;;;16.00;77.60;;;;;;5053711;28;20032;-78